Dunlap, Ohio
Current Conditions -  °F | °C
As of 10:35 AM on Monday 22 Dec 2014 (Local Time) from KI67 Reporting Station
Overcast Overcast  
Wind Chill: 36°   Ceiling: 10000
Heat Index: 36°   Visibility: 10mi
Dew Point: 32°   Wind: 3mph
Humidity: 87%   Direction: 30°NNE
Pressure: 30"   Gusts: NA
Location:  39.2201°N, 84.6531°W
Report Text: KI67 221535Z AUTO 03003KT 10SM OVC100 02/00 A3000 RMK AO1
Loading
Personal Weather Stations






























Interactive Weather Map New forecast layout! Learn more

10-Day Weather Forecast

Advertisements
Track Severe Weather on mobile